sensor_id;sensor_type;location;lat;lon;timestamp;P1;durP1;ratioP1;P2;durP2;ratioP2
75189;SDS011;69198;44.694;37.790;2023-05-21T00:00:04;17.63;;;7.85;;
75189;SDS011;69198;44.694;37.790;2023-05-21T00:01:12;18.67;;;8.43;;
75189;SDS011;69198;44.694;37.790;2023-05-21T00:02:16;21.33;;;9.10;;
75189;SDS011;69198;44.694;37.790;2023-05-21T00:03:17;17.80;;;8.57;;
75189;SDS011;69198;44.694;37.790;2023-05-21T00:04:18;17.87;;;8.47;;
75189;SDS011;69198;44.694;37.790;2023-05-21T00:05:19;21.47;;;8.83;;
75189;SDS011;69198;44.694;37.790;2023-05-21T00:06:20;19.00;;;8.90;;
75189;SDS011;69198;44.694;37.790;2023-05-21T00:07:22;20.25;;;8.80;;
75189;SDS011;69198;44.694;37.790;2023-05-21T00:08:23;18.48;;;7.90;;
75189;SDS011;69198;44.694;37.790;2023-05-21T00:09:24;19.90;;;8.52;;
75189;SDS011;69198;44.694;37.790;2023-05-21T00:10:25;17.40;;;8.05;;
75189;SDS011;69198;44.694;37.790;2023-05-21T00:11:26;18.80;;;8.70;;
75189;SDS011;69198;44.694;37.790;2023-05-21T00:12:27;20.47;;;8.53;;
75189;SDS011;69198;44.694;37.790;2023-05-21T00:13:28;22.55;;;8.35;;
75189;SDS011;69198;44.694;37.790;2023-05-21T00:14:30;19.20;;;8.30;;
75189;SDS011;69198;44.694;37.790;2023-05-21T00:15:31;19.05;;;7.78;;
75189;SDS011;69198;44.694;37.790;2023-05-21T00:16:32;19.20;;;8.55;;
75189;SDS011;69198;44.694;37.790;2023-05-21T00:17:33;22.88;;;8.75;;
75189;SDS011;69198;44.694;37.790;2023-05-21T00:18:36;18.58;;;8.27;;
75189;SDS011;69198;44.694;37.790;2023-05-21T00:19:38;19.90;;;8.75;;
75189;SDS011;69198;44.694;37.790;2023-05-21T00:20:39;19.47;;;8.30;;
75189;SDS011;69198;44.694;37.790;2023-05-21T00:21:41;20.02;;;8.25;;
75189;SDS011;69198;44.694;37.790;2023-05-21T00:22:42;17.73;;;8.43;;
75189;SDS011;69198;44.694;37.790;2023-05-21T00:23:43;20.75;;;9.05;;
75189;SDS011;69198;44.694;37.790;2023-05-21T00:24:44;19.17;;;8.57;;
75189;SDS011;69198;44.694;37.790;2023-05-21T00:25:45;21.00;;;8.68;;
75189;SDS011;69198;44.694;37.790;2023-05-21T00:26:47;20.52;;;8.73;;
75189;SDS011;69198;44.694;37.790;2023-05-21T00:27:48;20.58;;;8.93;;
75189;SDS011;69198;44.694;37.790;2023-05-21T00:28:49;19.55;;;9.10;;
75189;SDS011;69198;44.694;37.790;2023-05-21T00:29:50;21.17;;;8.90;;
75189;SDS011;69198;44.694;37.790;2023-05-21T00:30:51;17.87;;;8.70;;
75189;SDS011;69198;44.694;37.790;2023-05-21T00:31:52;17.15;;;8.40;;
75189;SDS011;69198;44.694;37.790;2023-05-21T00:32:53;19.27;;;8.35;;
75189;SDS011;69198;44.694;37.790;2023-05-21T00:33:58;18.52;;;8.43;;
75189;SDS011;69198;44.694;37.790;2023-05-21T00:34:59;17.48;;;7.82;;
75189;SDS011;69198;44.694;37.790;2023-05-21T00:36:00;21.92;;;8.55;;
75189;SDS011;69198;44.694;37.790;2023-05-21T00:37:02;18.42;;;8.60;;
75189;SDS011;69198;44.694;37.790;2023-05-21T00:38:03;17.92;;;8.32;;
75189;SDS011;69198;44.694;37.790;2023-05-21T00:39:07;18.70;;;8.80;;
75189;SDS011;69198;44.694;37.790;2023-05-21T00:40:09;19.30;;;9.00;;
75189;SDS011;69198;44.694;37.790;2023-05-21T00:41:11;19.45;;;8.25;;
75189;SDS011;69198;44.694;37.790;2023-05-21T00:42:12;18.35;;;8.23;;
75189;SDS011;69198;44.694;37.790;2023-05-21T00:43:18;17.02;;;8.48;;
75189;SDS011;69198;44.694;37.790;2023-05-21T00:44:19;20.00;;;8.70;;
75189;SDS011;69198;44.694;37.790;2023-05-21T00:45:20;17.85;;;8.48;;
75189;SDS011;69198;44.694;37.790;2023-05-21T00:46:23;20.73;;;9.18;;
75189;SDS011;69198;44.694;37.790;2023-05-21T00:47:24;17.90;;;8.25;;
75189;SDS011;69198;44.694;37.790;2023-05-21T00:48:28;18.60;;;8.25;;
75189;SDS011;69198;44.694;37.790;2023-05-21T00:49:31;17.15;;;8.50;;
75189;SDS011;69198;44.694;37.790;2023-05-21T00:50:32;20.87;;;8.53;;
75189;SDS011;69198;44.694;37.790;2023-05-21T00:51:34;20.33;;;8.30;;
75189;SDS011;69198;44.694;37.790;2023-05-21T00:52:35;19.60;;;8.18;;
75189;SDS011;69198;44.694;37.790;2023-05-21T00:53:41;18.00;;;8.25;;
75189;SDS011;69198;44.694;37.790;2023-05-21T00:54:43;18.50;;;8.23;;
75189;SDS011;69198;44.694;37.790;2023-05-21T00:55:45;18.42;;;8.77;;
75189;SDS011;69198;44.694;37.790;2023-05-21T00:56:47;18.30;;;8.10;;
75189;SDS011;69198;44.694;37.790;2023-05-21T00:57:48;19.40;;;9.07;;
75189;SDS011;69198;44.694;37.790;2023-05-21T00:58:50;19.45;;;8.27;;
75189;SDS011;69198;44.694;37.790;2023-05-21T00:59:51;20.07;;;8.37;;
75189;SDS011;69198;44.694;37.790;2023-05-21T01:00:52;16.95;;;7.85;;
75189;SDS011;69198;44.694;37.790;2023-05-21T01:01:57;19.05;;;8.68;;
75189;SDS011;69198;44.694;37.790;2023-05-21T01:03:04;18.88;;;8.90;;
75189;SDS011;69198;44.694;37.790;2023-05-21T01:04:06;20.83;;;8.13;;
75189;SDS011;69198;44.694;37.790;2023-05-21T01:05:07;20.80;;;8.30;;
75189;SDS011;69198;44.694;37.790;2023-05-21T01:06:09;19.48;;;7.93;;
75189;SDS011;69198;44.694;37.790;2023-05-21T01:07:11;21.13;;;8.60;;
75189;SDS011;69198;44.694;37.790;2023-05-21T01:08:12;18.88;;;8.40;;
75189;SDS011;69198;44.694;37.790;2023-05-21T01:09:14;18.15;;;8.43;;
75189;SDS011;69198;44.694;37.790;2023-05-21T01:10:15;19.60;;;9.03;;
75189;SDS011;69198;44.694;37.790;2023-05-21T01:11:16;19.63;;;9.13;;
75189;SDS011;69198;44.694;37.790;2023-05-21T01:12:19;20.55;;;8.52;;
75189;SDS011;69198;44.694;37.790;2023-05-21T01:13:20;18.63;;;8.43;;
75189;SDS011;69198;44.694;37.790;2023-05-21T01:14:23;19.80;;;8.93;;
75189;SDS011;69198;44.694;37.790;2023-05-21T01:15:25;19.33;;;8.77;;
75189;SDS011;69198;44.694;37.790;2023-05-21T01:16:26;16.88;;;8.75;;
75189;SDS011;69198;44.694;37.790;2023-05-21T01:17:28;18.63;;;8.68;;
75189;SDS011;69198;44.694;37.790;2023-05-21T01:18:29;19.65;;;9.57;;
75189;SDS011;69198;44.694;37.790;2023-05-21T01:19:34;21.27;;;8.80;;
75189;SDS011;69198;44.694;37.790;2023-05-21T01:20:36;24.17;;;9.30;;
75189;SDS011;69198;44.694;37.790;2023-05-21T01:21:40;22.88;;;9.40;;
75189;SDS011;69198;44.694;37.790;2023-05-21T01:22:56;20.83;;;8.98;;
75189;SDS011;69198;44.694;37.790;2023-05-21T01:23:58;20.15;;;8.93;;
75189;SDS011;69198;44.694;37.790;2023-05-21T01:24:59;19.20;;;8.75;;
75189;SDS011;69198;44.694;37.790;2023-05-21T01:26:01;21.13;;;9.02;;
75189;SDS011;69198;44.694;37.790;2023-05-21T01:27:02;20.70;;;8.77;;
75189;SDS011;69198;44.694;37.790;2023-05-21T01:28:06;21.65;;;9.40;;
75189;SDS011;69198;44.694;37.790;2023-05-21T01:29:07;18.83;;;8.45;;
75189;SDS011;69198;44.694;37.790;2023-05-21T01:30:12;22.03;;;9.30;;
75189;SDS011;69198;44.694;37.790;2023-05-21T01:31:34;22.42;;;9.45;;
75189;SDS011;69198;44.694;37.790;2023-05-21T01:32:54;19.95;;;8.75;;
75189;SDS011;69198;44.694;37.790;2023-05-21T01:34:03;22.90;;;9.98;;
75189;SDS011;69198;44.694;37.790;2023-05-21T01:35:08;19.80;;;9.20;;
75189;SDS011;69198;44.694;37.790;2023-05-21T01:36:24;21.27;;;9.02;;
75189;SDS011;69198;44.694;37.790;2023-05-21T01:41:38;21.70;;;8.90;;
75189;SDS011;69198;44.694;37.790;2023-05-21T01:42:44;23.30;;;9.30;;
75189;SDS011;69198;44.694;37.790;2023-05-21T01:43:47;20.73;;;8.77;;
75189;SDS011;69198;44.694;37.790;2023-05-21T01:44:50;21.30;;;9.07;;
75189;SDS011;69198;44.694;37.790;2023-05-21T01:45:54;20.80;;;9.65;;
75189;SDS011;69198;44.694;37.790;2023-05-21T01:46:58;22.77;;;9.20;;
75189;SDS011;69198;44.694;37.790;2023-05-21T01:48:00;20.00;;;8.82;;
75189;SDS011;69198;44.694;37.790;2023-05-21T01:49:01;19.00;;;9.05;;
75189;SDS011;69198;44.694;37.790;2023-05-21T01:50:04;22.60;;;9.13;;
75189;SDS011;69198;44.694;37.790;2023-05-21T01:51:06;20.48;;;9.38;;
75189;SDS011;69198;44.694;37.790;2023-05-21T01:52:08;21.92;;;9.20;;
75189;SDS011;69198;44.694;37.790;2023-05-21T01:53:09;21.87;;;8.87;;
75189;SDS011;69198;44.694;37.790;2023-05-21T01:54:10;20.95;;;9.45;;
75189;SDS011;69198;44.694;37.790;2023-05-21T01:55:11;23.40;;;9.55;;
75189;SDS011;69198;44.694;37.790;2023-05-21T01:56:12;20.92;;;9.05;;
75189;SDS011;69198;44.694;37.790;2023-05-21T01:57:15;21.65;;;9.20;;
75189;SDS011;69198;44.694;37.790;2023-05-21T01:58:17;24.77;;;9.32;;
75189;SDS011;69198;44.694;37.790;2023-05-21T01:59:20;22.17;;;9.63;;
75189;SDS011;69198;44.694;37.790;2023-05-21T02:00:22;22.83;;;9.95;;
75189;SDS011;69198;44.694;37.790;2023-05-21T02:01:25;23.30;;;9.30;;
75189;SDS011;69198;44.694;37.790;2023-05-21T02:02:29;22.57;;;9.97;;
75189;SDS011;69198;44.694;37.790;2023-05-21T02:03:30;24.73;;;9.75;;
75189;SDS011;69198;44.694;37.790;2023-05-21T02:04:31;22.33;;;9.15;;
75189;SDS011;69198;44.694;37.790;2023-05-21T02:05:32;19.63;;;9.43;;
75189;SDS011;69198;44.694;37.790;2023-05-21T02:06:34;23.55;;;9.98;;
75189;SDS011;69198;44.694;37.790;2023-05-21T02:07:36;25.92;;;10.35;;
75189;SDS011;69198;44.694;37.790;2023-05-21T02:08:37;20.00;;;9.63;;
75189;SDS011;69198;44.694;37.790;2023-05-21T02:09:39;20.85;;;9.00;;
75189;SDS011;69198;44.694;37.790;2023-05-21T02:10:40;22.17;;;9.32;;
75189;SDS011;69198;44.694;37.790;2023-05-21T02:11:41;21.43;;;10.17;;
75189;SDS011;69198;44.694;37.790;2023-05-21T02:12:42;23.90;;;10.52;;
75189;SDS011;69198;44.694;37.790;2023-05-21T02:13:44;23.50;;;10.23;;
75189;SDS011;69198;44.694;37.790;2023-05-21T02:14:45;27.98;;;12.18;;
75189;SDS011;69198;44.694;37.790;2023-05-21T02:15:49;25.30;;;10.60;;
75189;SDS011;69198;44.694;37.790;2023-05-21T02:16:54;24.73;;;10.43;;
75189;SDS011;69198;44.694;37.790;2023-05-21T02:17:56;25.92;;;10.60;;
75189;SDS011;69198;44.694;37.790;2023-05-21T02:18:57;24.25;;;10.93;;
75189;SDS011;69198;44.694;37.790;2023-05-21T02:20:00;25.75;;;10.77;;
75189;SDS011;69198;44.694;37.790;2023-05-21T02:21:10;23.80;;;11.15;;
75189;SDS011;69198;44.694;37.790;2023-05-21T02:22:11;27.60;;;11.37;;
75189;SDS011;69198;44.694;37.790;2023-05-21T02:23:12;31.10;;;11.07;;
75189;SDS011;69198;44.694;37.790;2023-05-21T02:24:13;27.67;;;12.23;;
75189;SDS011;69198;44.694;37.790;2023-05-21T02:25:15;27.85;;;12.32;;
75189;SDS011;69198;44.694;37.790;2023-05-21T02:26:17;30.80;;;12.30;;
75189;SDS011;69198;44.694;37.790;2023-05-21T02:27:18;26.20;;;12.00;;
75189;SDS011;69198;44.694;37.790;2023-05-21T02:28:19;29.88;;;12.63;;
75189;SDS011;69198;44.694;37.790;2023-05-21T02:29:21;29.10;;;12.68;;
75189;SDS011;69198;44.694;37.790;2023-05-21T02:30:22;28.77;;;12.53;;
75189;SDS011;69198;44.694;37.790;2023-05-21T02:31:23;29.07;;;12.20;;
75189;SDS011;69198;44.694;37.790;2023-05-21T02:32:24;26.38;;;12.35;;
75189;SDS011;69198;44.694;37.790;2023-05-21T02:33:25;28.63;;;12.02;;
75189;SDS011;69198;44.694;37.790;2023-05-21T02:34:26;27.55;;;11.63;;
75189;SDS011;69198;44.694;37.790;2023-05-21T02:35:30;29.90;;;12.63;;
75189;SDS011;69198;44.694;37.790;2023-05-21T02:36:31;26.50;;;12.48;;
75189;SDS011;69198;44.694;37.790;2023-05-21T02:37:32;26.63;;;11.73;;
75189;SDS011;69198;44.694;37.790;2023-05-21T02:38:34;26.27;;;11.75;;
75189;SDS011;69198;44.694;37.790;2023-05-21T02:39:37;29.02;;;12.15;;
75189;SDS011;69198;44.694;37.790;2023-05-21T02:40:39;30.03;;;11.63;;
75189;SDS011;69198;44.694;37.790;2023-05-21T02:41:40;28.60;;;11.65;;
75189;SDS011;69198;44.694;37.790;2023-05-21T02:42:42;27.05;;;11.05;;
75189;SDS011;69198;44.694;37.790;2023-05-21T02:43:47;26.95;;;11.70;;
75189;SDS011;69198;44.694;37.790;2023-05-21T02:44:49;24.10;;;10.65;;
75189;SDS011;69198;44.694;37.790;2023-05-21T02:45:51;26.52;;;11.13;;
75189;SDS011;69198;44.694;37.790;2023-05-21T02:46:52;24.02;;;10.82;;
75189;SDS011;69198;44.694;37.790;2023-05-21T02:47:54;23.88;;;10.45;;
75189;SDS011;69198;44.694;37.790;2023-05-21T02:48:55;25.55;;;10.55;;
75189;SDS011;69198;44.694;37.790;2023-05-21T02:49:59;23.67;;;10.33;;
75189;SDS011;69198;44.694;37.790;2023-05-21T02:51:04;21.67;;;10.18;;
75189;SDS011;69198;44.694;37.790;2023-05-21T02:52:05;24.58;;;11.00;;
75189;SDS011;69198;44.694;37.790;2023-05-21T02:53:07;25.15;;;9.98;;
75189;SDS011;69198;44.694;37.790;2023-05-21T02:54:09;20.27;;;9.85;;
75189;SDS011;69198;44.694;37.790;2023-05-21T02:55:10;23.58;;;10.02;;
75189;SDS011;69198;44.694;37.790;2023-05-21T02:56:11;25.33;;;10.60;;
75189;SDS011;69198;44.694;37.790;2023-05-21T02:57:12;19.95;;;9.82;;
75189;SDS011;69198;44.694;37.790;2023-05-21T02:58:13;19.08;;;8.90;;
75189;SDS011;69198;44.694;37.790;2023-05-21T02:59:15;21.40;;;9.07;;
75189;SDS011;69198;44.694;37.790;2023-05-21T03:00:16;21.77;;;9.80;;
75189;SDS011;69198;44.694;37.790;2023-05-21T03:01:18;19.25;;;8.73;;
75189;SDS011;69198;44.694;37.790;2023-05-21T03:02:19;19.17;;;9.00;;
75189;SDS011;69198;44.694;37.790;2023-05-21T03:03:20;18.13;;;7.82;;
75189;SDS011;69198;44.694;37.790;2023-05-21T03:04:21;18.70;;;7.32;;
75189;SDS011;69198;44.694;37.790;2023-05-21T03:05:22;17.33;;;7.03;;
75189;SDS011;69198;44.694;37.790;2023-05-21T03:06:23;18.05;;;7.57;;
75189;SDS011;69198;44.694;37.790;2023-05-21T03:07:25;12.63;;;6.07;;
75189;SDS011;69198;44.694;37.790;2023-05-21T03:08:26;13.68;;;5.43;;
75189;SDS011;69198;44.694;37.790;2023-05-21T03:09:27;12.53;;;5.70;;
75189;SDS011;69198;44.694;37.790;2023-05-21T03:10:30;12.60;;;5.57;;
75189;SDS011;69198;44.694;37.790;2023-05-21T03:11:32;13.32;;;5.57;;
75189;SDS011;69198;44.694;37.790;2023-05-21T03:12:33;9.77;;;3.67;;
75189;SDS011;69198;44.694;37.790;2023-05-21T03:13:34;13.90;;;5.10;;
75189;SDS011;69198;44.694;37.790;2023-05-21T03:14:35;11.38;;;4.57;;
75189;SDS011;69198;44.694;37.790;2023-05-21T03:15:36;11.18;;;5.68;;
75189;SDS011;69198;44.694;37.790;2023-05-21T03:16:38;9.95;;;3.97;;
75189;SDS011;69198;44.694;37.790;2023-05-21T03:17:41;10.60;;;4.20;;
75189;SDS011;69198;44.694;37.790;2023-05-21T03:18:43;9.13;;;3.63;;
75189;SDS011;69198;44.694;37.790;2023-05-21T03:19:44;11.07;;;3.70;;
75189;SDS011;69198;44.694;37.790;2023-05-21T03:20:45;8.57;;;3.75;;
75189;SDS011;69198;44.694;37.790;2023-05-21T03:21:47;8.70;;;3.13;;
75189;SDS011;69198;44.694;37.790;2023-05-21T03:22:49;11.80;;;3.67;;
75189;SDS011;69198;44.694;37.790;2023-05-21T03:23:52;7.82;;;3.38;;
75189;SDS011;69198;44.694;37.790;2023-05-21T03:24:58;7.93;;;3.22;;
75189;SDS011;69198;44.694;37.790;2023-05-21T03:26:01;8.77;;;3.70;;
75189;SDS011;69198;44.694;37.790;2023-05-21T03:27:02;8.52;;;3.00;;
75189;SDS011;69198;44.694;37.790;2023-05-21T03:28:05;10.77;;;3.60;;
75189;SDS011;69198;44.694;37.790;2023-05-21T03:29:20;8.90;;;3.45;;
75189;SDS011;69198;44.694;37.790;2023-05-21T03:30:22;7.47;;;3.07;;
75189;SDS011;69198;44.694;37.790;2023-05-21T03:31:53;8.95;;;2.75;;
75189;SDS011;69198;44.694;37.790;2023-05-21T03:32:54;9.93;;;3.15;;
75189;SDS011;69198;44.694;37.790;2023-05-21T03:33:55;9.70;;;3.28;;
75189;SDS011;69198;44.694;37.790;2023-05-21T03:35:00;10.02;;;3.33;;
75189;SDS011;69198;44.694;37.790;2023-05-21T03:36:01;9.52;;;3.60;;
75189;SDS011;69198;44.694;37.790;2023-05-21T03:37:07;9.25;;;3.58;;
75189;SDS011;69198;44.694;37.790;2023-05-21T03:38:08;11.98;;;4.20;;
75189;SDS011;69198;44.694;37.790;2023-05-21T03:39:09;9.65;;;4.18;;
75189;SDS011;69198;44.694;37.790;2023-05-21T03:40:11;12.20;;;3.90;;
75189;SDS011;69198;44.694;37.790;2023-05-21T03:41:13;10.60;;;3.80;;
75189;SDS011;69198;44.694;37.790;2023-05-21T03:42:16;11.27;;;3.30;;
75189;SDS011;69198;44.694;37.790;2023-05-21T03:43:22;10.20;;;3.20;;
75189;SDS011;69198;44.694;37.790;2023-05-21T03:44:23;7.68;;;2.80;;
75189;SDS011;69198;44.694;37.790;2023-05-21T03:45:44;12.63;;;3.50;;
75189;SDS011;69198;44.694;37.790;2023-05-21T03:47:18;12.98;;;3.20;;
75189;SDS011;69198;44.694;37.790;2023-05-21T03:48:19;8.10;;;3.00;;
75189;SDS011;69198;44.694;37.790;2023-05-21T03:49:20;9.75;;;2.90;;
75189;SDS011;69198;44.694;37.790;2023-05-21T03:50:24;8.55;;;2.50;;
75189;SDS011;69198;44.694;37.790;2023-05-21T03:51:25;8.30;;;2.50;;
75189;SDS011;69198;44.694;37.790;2023-05-21T03:52:27;8.13;;;2.80;;
75189;SDS011;69198;44.694;37.790;2023-05-21T03:53:28;10.80;;;2.50;;
75189;SDS011;69198;44.694;37.790;2023-05-21T03:54:30;8.60;;;2.70;;
75189;SDS011;69198;44.694;37.790;2023-05-21T03:55:36;11.13;;;2.78;;
75189;SDS011;69198;44.694;37.790;2023-05-21T03:56:37;8.38;;;2.85;;
75189;SDS011;69198;44.694;37.790;2023-05-21T03:57:38;8.82;;;2.55;;
75189;SDS011;69198;44.694;37.790;2023-05-21T03:58:39;7.93;;;3.05;;
75189;SDS011;69198;44.694;37.790;2023-05-21T03:59:40;6.70;;;2.28;;
75189;SDS011;69198;44.694;37.790;2023-05-21T04:00:41;9.50;;;2.55;;
75189;SDS011;69198;44.694;37.790;2023-05-21T04:01:43;8.03;;;2.70;;
75189;SDS011;69198;44.694;37.790;2023-05-21T04:02:48;8.52;;;2.90;;
75189;SDS011;69198;44.694;37.790;2023-05-21T04:03:50;9.95;;;2.88;;
75189;SDS011;69198;44.694;37.790;2023-05-21T04:04:52;9.20;;;2.90;;
75189;SDS011;69198;44.694;37.790;2023-05-21T04:05:55;7.60;;;2.83;;
75189;SDS011;69198;44.694;37.790;2023-05-21T04:06:56;9.07;;;2.80;;
75189;SDS011;69198;44.694;37.790;2023-05-21T04:07:58;9.02;;;2.88;;
75189;SDS011;69198;44.694;37.790;2023-05-21T04:08:59;9.05;;;2.70;;
75189;SDS011;69198;44.694;37.790;2023-05-21T04:10:00;9.18;;;2.70;;
75189;SDS011;69198;44.694;37.790;2023-05-21T04:11:03;8.18;;;2.38;;
75189;SDS011;69198;44.694;37.790;2023-05-21T04:12:04;9.57;;;2.47;;
75189;SDS011;69198;44.694;37.790;2023-05-21T04:13:05;8.07;;;3.13;;
75189;SDS011;69198;44.694;37.790;2023-05-21T04:14:06;7.10;;;2.65;;
75189;SDS011;69198;44.694;37.790;2023-05-21T04:15:07;8.00;;;2.70;;
75189;SDS011;69198;44.694;37.790;2023-05-21T04:16:09;8.73;;;2.50;;
75189;SDS011;69198;44.694;37.790;2023-05-21T04:17:14;7.25;;;2.30;;
75189;SDS011;69198;44.694;37.790;2023-05-21T04:18:15;8.70;;;2.92;;
75189;SDS011;69198;44.694;37.790;2023-05-21T04:19:17;9.40;;;3.10;;
75189;SDS011;69198;44.694;37.790;2023-05-21T04:20:17;8.83;;;2.97;;
75189;SDS011;69198;44.694;37.790;2023-05-21T04:21:18;9.65;;;2.75;;
75189;SDS011;69198;44.694;37.790;2023-05-21T04:22:20;11.43;;;5.00;;
75189;SDS011;69198;44.694;37.790;2023-05-21T04:23:22;9.00;;;3.78;;
75189;SDS011;69198;44.694;37.790;2023-05-21T04:24:24;8.02;;;3.20;;
75189;SDS011;69198;44.694;37.790;2023-05-21T04:25:39;11.25;;;3.58;;
75189;SDS011;69198;44.694;37.790;2023-05-21T04:26:41;8.75;;;3.45;;
75189;SDS011;69198;44.694;37.790;2023-05-21T04:27:43;8.27;;;3.40;;
75189;SDS011;69198;44.694;37.790;2023-05-21T04:28:47;9.93;;;3.58;;
75189;SDS011;69198;44.694;37.790;2023-05-21T04:29:50;11.88;;;5.32;;
75189;SDS011;69198;44.694;37.790;2023-05-21T04:30:51;10.17;;;3.50;;
75189;SDS011;69198;44.694;37.790;2023-05-21T04:31:52;10.07;;;3.05;;
75189;SDS011;69198;44.694;37.790;2023-05-21T04:32:53;9.25;;;3.00;;
75189;SDS011;69198;44.694;37.790;2023-05-21T04:33:54;9.88;;;3.00;;
75189;SDS011;69198;44.694;37.790;2023-05-21T04:34:56;9.68;;;2.80;;
75189;SDS011;69198;44.694;37.790;2023-05-21T04:35:57;9.43;;;2.80;;
75189;SDS011;69198;44.694;37.790;2023-05-21T04:36:58;7.38;;;2.50;;
75189;SDS011;69198;44.694;37.790;2023-05-21T04:38:01;9.88;;;2.85;;
75189;SDS011;69198;44.694;37.790;2023-05-21T04:39:05;8.63;;;2.40;;
75189;SDS011;69198;44.694;37.790;2023-05-21T04:40:09;8.77;;;2.77;;
75189;SDS011;69198;44.694;37.790;2023-05-21T04:41:17;6.90;;;2.30;;
75189;SDS011;69198;44.694;37.790;2023-05-21T04:42:18;7.78;;;2.33;;
75189;SDS011;69198;44.694;37.790;2023-05-21T04:43:23;7.78;;;2.55;;
75189;SDS011;69198;44.694;37.790;2023-05-21T04:44:30;6.65;;;2.10;;
75189;SDS011;69198;44.694;37.790;2023-05-21T04:45:33;6.15;;;1.95;;
75189;SDS011;69198;44.694;37.790;2023-05-21T04:46:34;7.40;;;2.15;;
75189;SDS011;69198;44.694;37.790;2023-05-21T04:47:35;8.25;;;2.50;;
75189;SDS011;69198;44.694;37.790;2023-05-21T04:48:37;6.85;;;2.30;;
75189;SDS011;69198;44.694;37.790;2023-05-21T04:49:42;11.35;;;2.08;;
75189;SDS011;69198;44.694;37.790;2023-05-21T04:50:43;6.60;;;2.33;;
75189;SDS011;69198;44.694;37.790;2023-05-21T04:51:44;7.82;;;2.40;;
75189;SDS011;69198;44.694;37.790;2023-05-21T04:52:46;7.15;;;2.20;;
75189;SDS011;69198;44.694;37.790;2023-05-21T04:53:47;9.40;;;2.65;;
75189;SDS011;69198;44.694;37.790;2023-05-21T04:54:49;8.80;;;2.50;;
75189;SDS011;69198;44.694;37.790;2023-05-21T04:55:50;7.60;;;2.20;;
75189;SDS011;69198;44.694;37.790;2023-05-21T04:56:53;7.10;;;2.20;;
75189;SDS011;69198;44.694;37.790;2023-05-21T04:57:54;10.13;;;3.03;;
75189;SDS011;69198;44.694;37.790;2023-05-21T04:58:55;9.60;;;3.42;;
75189;SDS011;69198;44.694;37.790;2023-05-21T04:59:58;8.18;;;3.28;;
75189;SDS011;69198;44.694;37.790;2023-05-21T05:01:00;9.37;;;2.40;;
75189;SDS011;69198;44.694;37.790;2023-05-21T05:02:04;8.15;;;2.40;;
75189;SDS011;69198;44.694;37.790;2023-05-21T05:03:05;7.43;;;2.33;;
75189;SDS011;69198;44.694;37.790;2023-05-21T05:04:06;6.85;;;2.30;;
75189;SDS011;69198;44.694;37.790;2023-05-21T05:05:07;7.10;;;2.25;;
75189;SDS011;69198;44.694;37.790;2023-05-21T05:06:08;7.55;;;2.10;;
75189;SDS011;69198;44.694;37.790;2023-05-21T05:07:10;7.22;;;2.60;;
75189;SDS011;69198;44.694;37.790;2023-05-21T05:08:11;10.35;;;2.90;;
75189;SDS011;69198;44.694;37.790;2023-05-21T05:09:12;7.00;;;2.45;;
75189;SDS011;69198;44.694;37.790;2023-05-21T05:10:17;6.07;;;2.17;;
75189;SDS011;69198;44.694;37.790;2023-05-21T05:11:18;7.97;;;2.90;;
75189;SDS011;69198;44.694;37.790;2023-05-21T05:12:19;8.38;;;2.38;;
75189;SDS011;69198;44.694;37.790;2023-05-21T05:13:20;8.25;;;2.60;;
75189;SDS011;69198;44.694;37.790;2023-05-21T05:14:21;7.82;;;2.63;;
75189;SDS011;69198;44.694;37.790;2023-05-21T05:15:22;9.25;;;2.80;;
75189;SDS011;69198;44.694;37.790;2023-05-21T05:16:25;7.65;;;2.65;;
75189;SDS011;69198;44.694;37.790;2023-05-21T05:17:30;7.65;;;2.72;;
75189;SDS011;69198;44.694;37.790;2023-05-21T05:18:32;11.68;;;2.90;;
75189;SDS011;69198;44.694;37.790;2023-05-21T05:19:34;9.38;;;3.17;;
75189;SDS011;69198;44.694;37.790;2023-05-21T05:20:35;9.43;;;3.07;;
75189;SDS011;69198;44.694;37.790;2023-05-21T05:21:36;9.93;;;2.65;;
75189;SDS011;69198;44.694;37.790;2023-05-21T05:22:38;7.32;;;1.77;;
75189;SDS011;69198;44.694;37.790;2023-05-21T05:23:39;6.07;;;1.85;;
75189;SDS011;69198;44.694;37.790;2023-05-21T05:24:42;6.03;;;1.50;;
75189;SDS011;69198;44.694;37.790;2023-05-21T05:25:42;6.70;;;1.60;;
75189;SDS011;69198;44.694;37.790;2023-05-21T05:26:44;6.32;;;1.75;;
75189;SDS011;69198;44.694;37.790;2023-05-21T05:27:45;6.53;;;2.37;;
75189;SDS011;69198;44.694;37.790;2023-05-21T05:28:46;7.60;;;2.40;;
75189;SDS011;69198;44.694;37.790;2023-05-21T05:29:47;6.38;;;2.20;;
75189;SDS011;69198;44.694;37.790;2023-05-21T05:30:48;7.65;;;2.63;;
75189;SDS011;69198;44.694;37.790;2023-05-21T05:31:55;8.50;;;3.00;;
75189;SDS011;69198;44.694;37.790;2023-05-21T05:32:56;8.45;;;3.15;;
75189;SDS011;69198;44.694;37.790;2023-05-21T05:33:57;9.50;;;3.00;;
75189;SDS011;69198;44.694;37.790;2023-05-21T05:34:58;7.85;;;2.25;;
75189;SDS011;69198;44.694;37.790;2023-05-21T05:36:00;8.10;;;2.83;;
75189;SDS011;69198;44.694;37.790;2023-05-21T05:37:02;7.93;;;2.03;;
75189;SDS011;69198;44.694;37.790;2023-05-21T05:38:03;6.27;;;1.80;;
75189;SDS011;69198;44.694;37.790;2023-05-21T05:39:05;8.13;;;2.20;;
75189;SDS011;69198;44.694;37.790;2023-05-21T05:40:07;5.60;;;1.60;;
75189;SDS011;69198;44.694;37.790;2023-05-21T05:41:08;6.95;;;1.40;;
75189;SDS011;69198;44.694;37.790;2023-05-21T05:42:09;6.07;;;1.70;;
75189;SDS011;69198;44.694;37.790;2023-05-21T05:43:10;5.53;;;1.45;;
75189;SDS011;69198;44.694;37.790;2023-05-21T05:44:11;6.25;;;1.70;;
75189;SDS011;69198;44.694;37.790;2023-05-21T05:45:12;7.10;;;1.77;;
75189;SDS011;69198;44.694;37.790;2023-05-21T05:46:15;6.13;;;1.70;;
75189;SDS011;69198;44.694;37.790;2023-05-21T05:47:16;5.75;;;1.80;;
75189;SDS011;69198;44.694;37.790;2023-05-21T05:48:17;7.20;;;1.50;;
75189;SDS011;69198;44.694;37.790;2023-05-21T05:49:18;7.82;;;2.03;;
75189;SDS011;69198;44.694;37.790;2023-05-21T05:50:20;5.00;;;1.33;;
75189;SDS011;69198;44.694;37.790;2023-05-21T05:51:21;6.22;;;1.58;;
75189;SDS011;69198;44.694;37.790;2023-05-21T05:52:22;5.00;;;1.40;;
75189;SDS011;69198;44.694;37.790;2023-05-21T05:53:23;5.88;;;1.50;;
75189;SDS011;69198;44.694;37.790;2023-05-21T05:54:24;5.88;;;1.20;;
75189;SDS011;69198;44.694;37.790;2023-05-21T05:55:25;5.20;;;1.52;;
75189;SDS011;69198;44.694;37.790;2023-05-21T05:56:27;6.05;;;1.60;;
75189;SDS011;69198;44.694;37.790;2023-05-21T05:57:28;5.68;;;1.40;;
75189;SDS011;69198;44.694;37.790;2023-05-21T05:58:36;4.70;;;1.20;;
75189;SDS011;69198;44.694;37.790;2023-05-21T05:59:43;5.72;;;1.35;;
75189;SDS011;69198;44.694;37.790;2023-05-21T06:00:45;5.45;;;1.20;;
75189;SDS011;69198;44.694;37.790;2023-05-21T06:01:46;5.03;;;1.40;;
75189;SDS011;69198;44.694;37.790;2023-05-21T06:02:48;5.20;;;1.40;;
75189;SDS011;69198;44.694;37.790;2023-05-21T06:03:49;5.13;;;1.30;;
75189;SDS011;69198;44.694;37.790;2023-05-21T06:04:52;5.55;;;1.20;;
75189;SDS011;69198;44.694;37.790;2023-05-21T06:05:53;5.10;;;1.30;;
75189;SDS011;69198;44.694;37.790;2023-05-21T06:06:54;6.03;;;1.63;;
75189;SDS011;69198;44.694;37.790;2023-05-21T06:07:59;5.85;;;1.33;;
75189;SDS011;69198;44.694;37.790;2023-05-21T06:09:01;5.10;;;1.37;;
75189;SDS011;69198;44.694;37.790;2023-05-21T06:10:02;5.20;;;1.20;;
75189;SDS011;69198;44.694;37.790;2023-05-21T06:11:04;6.05;;;1.40;;